createdAt,value
2018-03-23T00:02:02.641Z,160006.94
2018-03-23T00:04:30.376Z,160039.47
2018-03-23T00:06:57.980Z,160053.16
2018-03-23T00:09:25.713Z,160042.06
2018-03-23T00:11:53.850Z,160044.72
2018-03-23T00:14:21.628Z,160052.50
2018-03-23T00:16:49.406Z,160059.03
2018-03-23T00:19:17.288Z,160026.45
2018-03-23T00:21:44.962Z,160122.88
2018-03-23T00:24:12.682Z,160101.36
2018-03-23T00:26:40.827Z,160100.06
2018-03-23T00:29:08.568Z,160074.00
2018-03-23T00:31:36.274Z,160102.66
2018-03-23T00:34:04.055Z,160097.47
2018-03-23T00:36:31.834Z,160122.88
2018-03-23T00:38:59.615Z,160088.33
2018-03-23T00:41:27.478Z,160098.77
2018-03-23T00:43:55.271Z,160107.25
2018-03-23T00:46:23.032Z,160063.58
2018-03-23T00:48:50.775Z,160092.92
2018-03-23T00:51:18.501Z,160061.62
2018-03-23T00:53:46.284Z,160079.91
2018-03-23T00:56:14.163Z,160070.77
2018-03-23T00:58:41.858Z,160066.83
2018-03-23T01:01:09.721Z,160060.98
2018-03-23T01:03:37.596Z,160092.92
2018-03-23T01:06:05.271Z,160095.52
2018-03-23T01:08:33.051Z,160040.78
2018-03-23T01:11:00.727Z,160067.52
2018-03-23T01:13:28.402Z,160092.28
2018-03-23T01:15:56.231Z,160060.34
2018-03-23T01:18:23.846Z,160099.41
2018-03-23T01:20:51.528Z,160085.73
2018-03-23T01:23:19.254Z,160089.63
2018-03-23T01:25:47.093Z,160104.66
2018-03-23T01:28:14.812Z,160065.52
2018-03-23T01:30:42.644Z,160018.63
2018-03-23T01:33:10.381Z,160037.53
2018-03-23T01:35:38.197Z,160064.22
2018-03-23T01:38:05.973Z,160082.50
2018-03-23T01:40:33.694Z,160089.63
2018-03-23T01:43:01.325Z,160084.44
2018-03-23T01:45:29.105Z,160085.73
2018-03-23T01:47:56.843Z,160046.66
2018-03-23T01:50:24.559Z,160082.50
2018-03-23T01:52:52.437Z,160077.25
2018-03-23T01:55:20.034Z,160098.11
2018-03-23T01:57:47.740Z,160079.19
2018-03-23T02:00:15.875Z,160090.28
2018-03-23T02:02:43.650Z,160120.27
2018-03-23T02:05:11.429Z,160093.58
2018-03-23T02:07:39.097Z,160092.92
2018-03-23T02:10:06.884Z,160091.58
2018-03-23T02:12:34.508Z,160096.81
2018-03-23T02:15:02.300Z,160087.03
2018-03-23T02:17:30.115Z,160093.58
2018-03-23T02:19:57.895Z,160104.66
2018-03-23T02:22:25.780Z,160074.66
2018-03-23T02:24:53.620Z,160118.33
2018-03-23T02:27:21.429Z,160091.58
2018-03-23T02:29:49.312Z,160096.81
2018-03-23T02:32:17.190Z,160073.36
2018-03-23T02:34:44.969Z,160085.73
2018-03-23T02:37:12.852Z,160074.00
2018-03-23T02:39:40.522Z,160099.41
2018-03-23T02:42:08.302Z,160103.31
2018-03-23T02:44:36.154Z,160130.06
2018-03-23T02:47:03.964Z,160130.06
2018-03-23T02:49:31.629Z,160127.41
2018-03-23T02:51:59.421Z,160123.52
2018-03-23T02:54:27.143Z,160120.27
2018-03-23T02:56:54.968Z,160124.81
2018-03-23T02:59:22.646Z,160165.25
2018-03-23T03:01:50.416Z,160149.56
2018-03-23T03:04:18.117Z,160116.38
2018-03-23T03:06:45.831Z,160103.31
2018-03-23T03:09:13.654Z,160106.59
2018-03-23T03:11:41.945Z,160120.27
2018-03-23T03:14:09.675Z,160131.36
2018-03-23T03:16:37.503Z,160118.33
2018-03-23T03:19:05.276Z,160117.67
2018-03-23T03:21:32.949Z,160113.09
2018-03-23T03:24:00.730Z,160091.58
2018-03-23T03:26:28.459Z,160081.84
2018-03-23T03:28:56.075Z,160081.19
2018-03-23T03:31:23.963Z,160105.94
2018-03-23T03:33:51.634Z,160095.52
2018-03-23T03:36:19.423Z,160095.52
2018-03-23T03:38:47.140Z,160089.63
2018-03-23T03:41:14.870Z,160102.66
2018-03-23T03:43:42.752Z,160104.00
2018-03-23T03:46:10.527Z,160126.77
2018-03-23T03:48:38.305Z,160135.25
2018-03-23T03:51:06.090Z,160117.03
2018-03-23T03:53:33.747Z,160138.50
2018-03-23T03:56:01.641Z,160179.58
2018-03-23T03:58:29.311Z,160162.59
2018-03-23T04:00:57.093Z,160143.09
2018-03-23T04:03:24.869Z,160119.62
2018-03-23T04:05:52.796Z,160146.33
2018-03-23T04:08:20.528Z,160124.17
2018-03-23T04:10:48.306Z,160132.00
2018-03-23T04:13:16.082Z,160168.50
2018-03-23T04:15:43.967Z,160139.14
2018-03-23T04:18:11.745Z,160130.06
2018-03-23T04:20:39.423Z,160133.30
2018-03-23T04:23:07.138Z,160143.73
2018-03-23T04:25:34.761Z,160139.78
2018-03-23T04:28:02.897Z,160187.36
2018-03-23T04:30:30.513Z,160152.17
2018-03-23T04:32:58.305Z,160126.77
2018-03-23T04:35:25.978Z,160148.28
2018-03-23T04:37:53.656Z,160150.87
2018-03-23T04:40:21.506Z,160150.87
2018-03-23T04:42:49.314Z,160155.47
2018-03-23T04:45:17.206Z,160146.33
2018-03-23T04:47:44.930Z,160155.47
2018-03-23T04:50:12.648Z,160157.41
2018-03-23T04:52:40.837Z,160152.17
2018-03-23T04:55:08.649Z,160132.66
2018-03-23T04:57:36.496Z,160178.28
2018-03-23T05:00:04.682Z,160142.44
2018-03-23T05:02:32.455Z,160119.62
2018-03-23T05:05:00.238Z,160167.19
2018-03-23T05:07:28.120Z,160167.84
2018-03-23T05:09:55.892Z,160155.47
2018-03-23T05:12:23.575Z,160167.19
2018-03-23T05:14:51.230Z,160143.09
2018-03-23T05:17:18.980Z,160178.92
2018-03-23T05:19:47.109Z,160224.50
2018-03-23T05:22:14.873Z,160195.84
2018-03-23T05:24:42.568Z,160219.97
2018-03-23T05:27:10.336Z,160199.09
2018-03-23T05:29:38.088Z,160196.50
2018-03-23T05:32:05.784Z,160159.36
2018-03-23T05:34:33.572Z,160188.02
2018-03-23T05:37:01.661Z,160195.84
2018-03-23T05:39:29.449Z,160195.84
2018-03-23T05:41:57.215Z,160161.95
2018-03-23T05:44:25.092Z,160156.11
2018-03-23T05:46:52.830Z,160177.63
2018-03-23T05:49:22.388Z,160191.31
2018-03-23T05:51:50.528Z,160221.91
2018-03-23T05:54:19.275Z,160165.25
2018-03-23T05:56:47.052Z,160206.28
2018-03-23T05:59:14.831Z,160224.50
2018-03-23T06:01:42.512Z,160204.98
2018-03-23T06:04:10.285Z,160194.55
2018-03-23T06:06:37.965Z,160186.06
2018-03-23T06:09:05.727Z,160221.91
2018-03-23T06:11:33.517Z,160208.87
2018-03-23T06:14:01.287Z,160238.23
2018-03-23T06:16:29.175Z,160198.44
2018-03-23T06:18:56.919Z,160218.02
2018-03-23T06:21:24.686Z,160230.39
2018-03-23T06:23:52.396Z,160246.67
2018-03-23T06:26:20.143Z,160229.09
2018-03-23T06:28:47.963Z,160283.83
2018-03-23T06:31:15.641Z,160312.53
2018-03-23T06:33:43.310Z,160259.06
2018-03-23T06:36:11.194Z,160296.86
2018-03-23T06:38:38.971Z,160332.06
2018-03-23T06:41:06.751Z,160272.09
2018-03-23T06:43:34.630Z,160319.03
2018-03-23T06:46:02.409Z,160317.73
2018-03-23T06:48:30.170Z,160301.45
2018-03-23T06:50:57.964Z,160328.81
2018-03-23T06:53:25.744Z,160329.47
2018-03-23T06:55:53.469Z,160367.33
2018-03-23T06:58:21.294Z,160374.52
2018-03-23T07:00:48.970Z,160371.92
2018-03-23T07:03:16.742Z,160379.06
2018-03-23T07:05:44.630Z,160399.30
2018-03-23T07:08:12.374Z,160408.44
2018-03-23T07:10:40.188Z,160409.09
2018-03-23T07:13:07.884Z,160354.23
2018-03-23T07:15:35.652Z,160405.14
2018-03-23T07:18:03.418Z,160422.78
2018-03-23T07:20:31.195Z,160433.22
2018-03-23T07:22:58.838Z,160390.16
2018-03-23T07:25:26.530Z,160385.61
2018-03-23T07:27:54.324Z,160393.41
2018-03-23T07:30:21.997Z,160401.89
2018-03-23T07:32:49.629Z,160431.91
2018-03-23T07:35:17.760Z,160479.47
2018-03-23T07:37:45.572Z,160450.16
2018-03-23T07:40:13.418Z,160497.77
2018-03-23T07:42:41.199Z,160511.45
2018-03-23T07:45:08.871Z,160432.56
2018-03-23T07:47:36.751Z,160400.59
2018-03-23T07:50:04.428Z,160455.34
2018-03-23T07:52:32.173Z,160466.44
2018-03-23T07:54:59.984Z,160436.47
2018-03-23T07:57:27.760Z,160458.00
2018-03-23T07:59:55.501Z,160479.47
2018-03-23T08:02:23.314Z,160468.44
2018-03-23T08:04:51.093Z,160483.42
2018-03-23T08:07:18.759Z,160528.39
2018-03-23T08:09:46.436Z,160426.66
2018-03-23T08:12:14.331Z,160392.75
2018-03-23T08:14:41.992Z,160444.95
2018-03-23T08:17:09.777Z,160435.81
2018-03-23T08:19:37.448Z,160441.66
2018-03-23T08:22:05.332Z,160425.37
2018-03-23T08:24:33.005Z,160515.34
2018-03-23T08:27:00.758Z,160395.41
2018-03-23T08:29:28.524Z,160430.56
2018-03-23T08:31:56.343Z,160406.44
2018-03-23T08:34:24.121Z,160384.31
2018-03-23T08:36:51.897Z,160449.50
2018-03-23T08:39:19.678Z,160476.23
2018-03-23T08:41:47.664Z,160521.25
2018-03-23T08:44:15.588Z,160595.61
2018-03-23T08:46:43.214Z,160696.72
2018-03-23T08:49:10.994Z,160723.52
2018-03-23T08:51:38.667Z,160615.20
2018-03-23T08:54:06.385Z,160807.03
2018-03-23T08:56:34.226Z,160931.77
2018-03-23T08:59:01.973Z,160874.28
2018-03-23T09:01:29.782Z,160814.22
2018-03-23T09:03:57.458Z,160767.22
2018-03-23T09:06:25.128Z,160731.31
2018-03-23T09:08:52.909Z,160746.31
2018-03-23T09:11:21.098Z,160906.95
2018-03-23T09:13:48.822Z,160947.42
2018-03-23T09:16:16.654Z,160936.31
2018-03-23T09:18:44.533Z,160938.91
2018-03-23T09:21:12.206Z,161012.11
2018-03-23T09:23:39.938Z,160883.44
2018-03-23T09:26:07.767Z,160912.16
2018-03-23T09:28:35.444Z,161049.33
2018-03-23T09:31:03.322Z,160820.78
2018-03-23T09:33:31.059Z,160895.84
2018-03-23T09:35:58.821Z,161007.56
2018-03-23T09:38:26.656Z,161062.41
2018-03-23T09:40:54.382Z,161157.78
2018-03-23T09:43:22.209Z,160995.14
2018-03-23T09:45:49.986Z,160910.84
2018-03-23T09:48:17.765Z,160978.09
2018-03-23T09:50:45.444Z,160940.22
2018-03-23T09:53:13.115Z,161127.09
2018-03-23T09:55:41.305Z,161025.17
2018-03-23T09:58:09.082Z,161020.61
2018-03-23T10:00:36.873Z,160910.84
2018-03-23T10:03:04.936Z,160797.28
2018-03-23T10:05:32.782Z,160720.22
2018-03-23T10:08:00.407Z,160717.63
2018-03-23T10:10:28.075Z,160605.41
2018-03-23T10:12:55.749Z,160700.67
2018-03-23T10:15:23.495Z,160746.97
2018-03-23T10:17:51.191Z,160822.08
2018-03-23T10:20:18.979Z,160916.70
2018-03-23T10:22:46.759Z,160920.66
2018-03-23T10:25:14.479Z,160930.47
2018-03-23T10:27:42.317Z,160782.22
2018-03-23T10:30:10.199Z,160876.89
2018-03-23T10:32:37.806Z,160839.03
2018-03-23T10:35:05.539Z,160869.09
2018-03-23T10:37:33.227Z,160804.42
2018-03-23T10:40:00.899Z,160822.72
2018-03-23T10:42:28.781Z,160745.67
2018-03-23T10:44:56.451Z,160808.37
2018-03-23T10:47:24.264Z,160792.67
2018-03-23T10:49:52.069Z,160720.22
2018-03-23T10:52:19.891Z,160726.13
2018-03-23T10:54:48.485Z,160795.97
2018-03-23T10:57:16.266Z,160756.77
2018-03-23T10:59:44.083Z,160624.30
2018-03-23T11:05:15.644Z,160621.69
2018-03-23T11:07:43.424Z,160575.36
2018-03-23T11:10:11.151Z,160534.28
2018-03-23T11:12:38.870Z,160560.38
2018-03-23T11:15:06.612Z,160662.13
2018-03-23T11:17:34.324Z,160653.69
2018-03-23T11:20:02.169Z,160717.63
2018-03-23T11:22:29.884Z,160784.88
2018-03-23T11:24:57.558Z,160765.27
2018-03-23T11:27:25.332Z,160719.56
2018-03-23T11:29:53.123Z,160830.53
2018-03-23T11:32:20.855Z,160922.61
2018-03-23T11:34:48.775Z,160864.48
2018-03-23T11:37:16.551Z,160849.48
2018-03-23T11:39:44.328Z,160827.92
2018-03-23T11:42:12.107Z,160844.23
2018-03-23T11:44:40.296Z,160805.08
2018-03-23T11:47:07.958Z,160816.17
2018-03-23T11:49:35.717Z,160790.72
2018-03-23T11:52:03.527Z,160886.03
2018-03-23T11:54:31.304Z,160804.42
2018-03-23T11:56:59.388Z,160818.78
2018-03-23T11:59:27.171Z,160819.42
2018-03-23T12:01:54.859Z,160814.88
2018-03-23T12:04:22.617Z,160901.05
2018-03-23T12:06:50.401Z,160870.39
2018-03-23T12:09:18.178Z,160760.72
2018-03-23T12:11:46.056Z,160797.28
2018-03-23T12:14:13.820Z,160763.97
2018-03-23T12:16:41.613Z,160755.47
2018-03-23T12:19:09.278Z,160627.59
2018-03-23T12:21:37.367Z,160623.00
2018-03-23T12:24:05.153Z,160764.63
2018-03-23T12:26:32.935Z,160780.92
2018-03-23T12:29:00.614Z,160671.94
2018-03-23T12:31:28.482Z,160701.97
2018-03-23T12:33:56.214Z,160749.63
2018-03-23T12:36:24.042Z,160813.58
2018-03-23T12:38:51.923Z,160739.17
2018-03-23T12:41:19.598Z,160696.72
2018-03-23T12:43:47.371Z,160771.13
2018-03-23T12:46:15.558Z,160801.17
2018-03-23T12:48:43.228Z,160801.81
2018-03-23T12:51:11.014Z,160744.37
2018-03-23T12:53:38.894Z,160825.97
2018-03-23T12:56:06.570Z,160840.97
2018-03-23T12:58:34.347Z,160709.78
2018-03-23T13:01:02.020Z,160748.31
2018-03-23T13:03:29.803Z,160788.77
2018-03-23T13:05:58.120Z,160763.31
2018-03-23T13:08:25.868Z,160803.77
2018-03-23T13:10:53.538Z,160773.77
2018-03-23T13:13:21.425Z,160710.42
2018-03-23T13:15:49.146Z,160787.47
2018-03-23T13:18:16.759Z,160760.72
2018-03-23T13:20:44.549Z,160722.17
2018-03-23T13:23:12.214Z,160648.44
2018-03-23T13:25:40.003Z,160724.81
2018-03-23T13:28:07.781Z,160750.92
2018-03-23T13:30:35.664Z,160627.59
2018-03-23T13:33:03.417Z,160690.88
2018-03-23T13:35:31.219Z,160738.53
2018-03-23T13:37:58.999Z,160718.27
2018-03-23T13:40:26.866Z,160728.72
2018-03-23T13:42:54.539Z,160711.13
2018-03-23T13:45:22.327Z,160751.56
2018-03-23T13:47:50.106Z,160790.06
2018-03-23T13:50:17.845Z,160748.97
2018-03-23T13:52:45.663Z,160809.67
2018-03-23T13:55:13.440Z,160844.23
2018-03-23T13:57:41.217Z,160725.47
2018-03-23T14:00:14.422Z,160788.13
2018-03-23T14:02:42.204Z,160741.77
2018-03-23T14:05:10.264Z,160759.38
2018-03-23T14:07:37.975Z,160756.77
2018-03-23T14:10:05.743Z,160842.28
2018-03-23T14:12:33.415Z,160851.44
2018-03-23T14:15:01.148Z,160779.62
2018-03-23T14:17:28.971Z,160742.42
2018-03-23T14:19:56.749Z,160736.56
2018-03-23T14:22:24.474Z,160794.63
2018-03-23T14:24:52.306Z,160771.81
2018-03-23T14:27:20.083Z,160758.72
2018-03-23T14:29:47.950Z,160661.48
2018-03-23T14:32:15.688Z,160716.31
2018-03-23T14:34:43.380Z,160733.27
2018-03-23T14:37:11.084Z,160723.52
2018-03-23T14:39:38.871Z,160782.22
2018-03-23T14:42:06.648Z,160775.72
2018-03-23T14:44:34.498Z,160761.38
2018-03-23T14:47:02.127Z,160735.92
2018-03-23T14:49:29.833Z,160794.63
2018-03-23T14:51:57.552Z,160861.89
2018-03-23T14:54:25.578Z,160897.80
2018-03-23T14:56:53.416Z,160827.28
2018-03-23T14:59:21.195Z,160915.41
2018-03-23T15:01:49.384Z,160841.63
2018-03-23T15:04:17.160Z,160805.08
2018-03-23T15:06:44.897Z,160809.67
2018-03-23T15:09:13.021Z,160774.42
2018-03-23T15:11:40.802Z,160810.97
2018-03-23T15:14:16.668Z,160941.52
2018-03-23T15:16:44.374Z,160923.25
2018-03-23T15:19:12.083Z,160906.95
2018-03-23T15:21:39.869Z,160855.98
2018-03-23T15:24:07.579Z,160883.44
2018-03-23T15:26:35.240Z,160904.30
2018-03-23T15:29:03.522Z,160939.56
2018-03-23T15:31:31.234Z,161035.63
2018-03-23T15:33:58.879Z,160961.78
2018-03-23T15:36:27.080Z,160939.56
2018-03-23T15:38:54.754Z,160876.89
2018-03-23T15:41:22.556Z,160904.30
2018-03-23T15:43:50.307Z,160792.67
2018-03-23T15:46:18.197Z,160805.72
2018-03-23T15:48:45.862Z,160750.27
2018-03-23T15:51:13.743Z,160748.97
2018-03-23T15:53:41.524Z,160834.47
2018-03-23T15:56:09.301Z,160799.22
2018-03-23T15:58:36.972Z,160701.33
2018-03-23T16:01:04.812Z,160705.88
2018-03-23T16:03:32.536Z,160671.94
2018-03-23T16:06:00.646Z,160645.84
2018-03-23T16:08:28.395Z,160616.50
2018-03-23T16:10:56.127Z,160677.83
2018-03-23T16:13:23.950Z,160615.20
2018-03-23T16:15:51.729Z,160617.80
2018-03-23T16:18:19.451Z,160594.30
2018-03-23T16:20:47.184Z,160642.59
2018-03-23T16:23:14.961Z,160632.78
2018-03-23T16:25:42.736Z,160591.70
2018-03-23T16:28:11.030Z,160693.47
2018-03-23T16:30:38.810Z,160722.17
2018-03-23T16:33:06.527Z,160696.72
2018-03-23T16:35:34.571Z,160750.92
2018-03-23T16:38:02.595Z,160734.56
2018-03-23T16:40:30.328Z,160624.94
2018-03-23T16:42:58.148Z,160614.55
2018-03-23T16:45:25.884Z,160654.34
2018-03-23T16:47:53.662Z,160566.91
2018-03-23T16:50:21.397Z,160627.59
2018-03-23T16:52:49.218Z,160612.55
2018-03-23T16:55:17.003Z,160560.38
2018-03-23T16:57:44.775Z,160585.16
2018-03-23T17:00:12.586Z,160587.75
2018-03-23T17:02:40.326Z,160554.53
2018-03-23T17:05:08.108Z,160517.34
2018-03-23T17:07:36.105Z,160495.81
2018-03-23T17:10:04.052Z,160540.84
2018-03-23T17:12:34.013Z,160538.84
2018-03-23T17:15:03.910Z,160544.73
2018-03-23T17:17:33.887Z,160551.88
2018-03-23T17:20:01.743Z,160535.59
2018-03-23T17:22:29.517Z,160503.61
2018-03-23T17:24:57.294Z,160515.34
2018-03-23T17:27:25.178Z,160513.41
2018-03-23T17:29:52.959Z,160523.19
2018-03-23T17:32:20.706Z,160480.83
2018-03-23T17:34:48.515Z,160482.13
2018-03-23T17:37:16.333Z,160465.78
2018-03-23T17:39:44.066Z,160480.17
2018-03-23T17:42:11.727Z,160484.72
2018-03-23T17:44:39.507Z,160450.80
2018-03-23T17:47:07.400Z,160471.03
2018-03-23T17:49:35.177Z,160467.73
2018-03-23T17:52:02.956Z,160450.16
2018-03-23T17:54:30.833Z,160451.44
2018-03-23T17:56:58.614Z,160432.56
2018-03-23T17:59:27.449Z,160407.78
2018-03-23T18:01:56.226Z,160475.58
2018-03-23T18:04:26.764Z,160475.58
2018-03-23T18:06:54.638Z,160466.44
2018-03-23T18:09:22.319Z,160477.53
2018-03-23T18:11:50.407Z,160466.44
2018-03-23T18:14:18.180Z,160439.70
2018-03-23T18:16:45.843Z,160426.66
2018-03-23T18:19:14.452Z,160404.48
2018-03-23T18:21:42.207Z,160436.47
2018-03-23T18:24:09.905Z,160433.22
2018-03-23T18:26:37.579Z,160436.47
2018-03-23T18:29:05.230Z,160417.53
2018-03-23T18:31:33.043Z,160406.44
2018-03-23T18:34:00.740Z,160418.83
2018-03-23T18:36:28.384Z,160405.78
2018-03-23T18:38:56.270Z,160443.66
2018-03-23T18:41:23.987Z,160405.14
2018-03-23T18:43:51.619Z,160380.36
2018-03-23T18:46:19.497Z,160348.39
2018-03-23T18:48:47.276Z,160376.47
2018-03-23T18:51:15.054Z,160362.08
2018-03-23T18:53:42.833Z,160379.06
2018-03-23T18:56:10.566Z,160357.48
2018-03-23T18:58:38.229Z,160356.84
2018-03-23T19:01:06.317Z,160372.56
2018-03-23T19:03:34.116Z,160350.34
2018-03-23T19:06:01.699Z,160356.84
2018-03-23T19:08:29.808Z,160385.61
2018-03-23T19:10:57.451Z,160384.31
2018-03-23T19:13:25.142Z,160342.50
2018-03-23T19:15:52.819Z,160356.84
2018-03-23T19:18:20.493Z,160352.30
2018-03-23T19:20:48.182Z,160356.84
2018-03-23T19:23:15.963Z,160370.58
2018-03-23T19:25:43.746Z,160366.03
2018-03-23T19:28:13.482Z,160333.36
2018-03-23T19:30:41.446Z,160352.30
2018-03-23T19:33:09.189Z,160330.13
2018-03-23T19:35:37.001Z,160288.42
2018-03-23T19:38:04.782Z,160289.06
2018-03-23T19:40:32.664Z,160271.44
2018-03-23T19:43:00.444Z,160236.23
2018-03-23T19:45:28.214Z,160253.88
2018-03-23T19:47:55.995Z,160233.64
2018-03-23T19:50:23.872Z,160219.97
2018-03-23T19:52:51.720Z,160183.47
2018-03-23T19:55:19.490Z,160199.75
2018-03-23T19:57:47.206Z,160202.39
2018-03-23T20:00:14.884Z,160208.23
2018-03-23T20:02:42.706Z,160194.55
2018-03-23T20:05:10.543Z,160192.61
2018-03-23T20:07:38.218Z,160172.39
2018-03-23T20:10:06.061Z,160198.44
2018-03-23T20:12:33.979Z,160177.63
2018-03-23T20:15:01.756Z,160171.09
2018-03-23T20:17:35.066Z,160151.53
2018-03-23T20:20:03.764Z,160146.97
2018-03-23T20:22:31.754Z,160159.36
2018-03-23T20:24:59.530Z,160159.36
2018-03-23T20:27:32.938Z,160187.36
2018-03-23T20:30:00.671Z,160158.06
2018-03-23T20:32:32.398Z,160145.69
2018-03-23T20:35:00.048Z,160150.87
2018-03-23T20:37:27.834Z,160137.19
2018-03-23T20:39:55.718Z,160139.78
2018-03-23T20:42:23.414Z,160169.14
2018-03-23T20:44:51.582Z,160139.14
2018-03-23T20:47:19.239Z,160146.97
2018-03-23T20:49:47.038Z,160129.41
2018-03-23T20:52:15.226Z,160157.41
2018-03-23T20:54:42.993Z,160157.41
2018-03-23T20:57:10.787Z,160149.56
2018-03-23T20:59:38.657Z,160133.95
2018-03-23T21:02:06.748Z,160152.17
2018-03-23T21:04:34.420Z,160195.20
2018-03-23T21:07:02.143Z,160146.97
2018-03-23T21:09:29.870Z,160177.63
2018-03-23T21:11:57.649Z,160167.19
2018-03-23T21:14:25.537Z,160173.03
2018-03-23T21:16:53.258Z,160147.63
2018-03-23T21:19:21.092Z,160148.92
2018-03-23T21:21:48.866Z,160126.77
2018-03-23T21:24:16.655Z,160139.14
2018-03-23T21:26:44.420Z,160171.73
2018-03-23T21:29:12.168Z,160167.19
2018-03-23T21:31:39.977Z,160176.28
2018-03-23T21:34:07.882Z,160164.59
2018-03-23T21:36:36.045Z,160151.53
2018-03-23T21:39:03.896Z,160134.59
2018-03-23T21:41:31.595Z,160163.25
2018-03-23T21:43:59.477Z,160169.14
2018-03-23T21:46:27.230Z,160165.25
2018-03-23T21:48:54.931Z,160146.97
2018-03-23T21:51:22.605Z,160176.98
2018-03-23T21:53:50.363Z,160202.39
2018-03-23T21:56:18.369Z,160176.98
2018-03-23T21:58:46.144Z,160169.78
2018-03-23T22:01:13.924Z,160140.48
2018-03-23T22:03:41.705Z,160168.50
2018-03-23T22:06:09.476Z,160186.06
2018-03-23T22:08:37.137Z,160203.69
2018-03-23T22:11:04.894Z,160178.92
2018-03-23T22:13:32.712Z,160170.44
2018-03-23T22:16:00.591Z,160149.56
2018-03-23T22:18:28.261Z,160180.22
2018-03-23T22:20:56.042Z,160149.56
2018-03-23T22:23:23.822Z,160132.66
2018-03-23T22:25:51.500Z,160144.38
2018-03-23T22:28:19.275Z,160132.66
2018-03-23T22:30:47.005Z,160135.91
2018-03-23T22:33:14.720Z,160141.13
2018-03-23T22:35:42.389Z,160148.28
2018-03-23T22:38:10.066Z,160180.22
2018-03-23T22:40:38.267Z,160174.33
2018-03-23T22:43:05.936Z,160160.66
2018-03-23T22:45:33.721Z,160191.31
2018-03-23T22:48:01.497Z,160171.73
2018-03-23T22:50:29.174Z,160178.92
2018-03-23T22:52:56.842Z,160159.36
2018-03-23T22:55:24.525Z,160139.78
2018-03-23T22:57:52.286Z,160136.55
2018-03-23T23:00:19.970Z,160161.95
2018-03-23T23:02:47.719Z,160144.38
2018-03-23T23:05:15.535Z,160151.53
2018-03-23T23:07:43.312Z,160160.00
2018-03-23T23:10:10.987Z,160154.16
2018-03-23T23:12:38.867Z,160165.25
2018-03-23T23:15:06.646Z,160149.56
2018-03-23T23:17:34.424Z,160135.91
2018-03-23T23:20:02.203Z,160147.63
2018-03-23T23:22:30.083Z,160148.92
2018-03-23T23:24:57.860Z,160139.14
2018-03-23T23:27:25.643Z,160160.66
2018-03-23T23:29:53.929Z,160150.22
2018-03-23T23:32:21.600Z,160142.44
2018-03-23T23:34:49.278Z,160150.87
2018-03-23T23:37:17.056Z,160163.25
2018-03-23T23:39:44.792Z,160182.81
2018-03-23T23:42:12.505Z,160163.25
2018-03-23T23:44:40.389Z,160174.98
2018-03-23T23:47:08.165Z,160169.78
2018-03-23T23:49:35.908Z,160160.00
2018-03-23T23:52:03.611Z,160172.39
2018-03-23T23:54:31.399Z,160177.63
2018-03-23T23:56:59.161Z,160163.25
2018-03-23T23:59:26.900Z,160150.87
